Terminal Aerodrome Forecast
Issued by NWS Bismarck, ND

Home | Current Version | Previous Version | Graphics & Text | Print | Product List | Glossary On
Versions: 1 2 3 4 5 6 7 8 9 10 11 12 13 14
000
FTUS43 KBIS 282300
TAFBIS
TAF
KBIS 282321Z 2900/2924 VRB05KT P6SM FEW060
     FM290200 08004KT P6SM FEW070
     FM290600 10003KT P6SM SCT060
     FM291200 11003KT P6SM BKN070
     FM291900 08005KT P6SM SCT070=

USA.gov is the U.S. government's official web portal to all federal, state and local government web resources and services.